sensor_id;sensor_type;location;lat;lon;timestamp;pressure;altitude;pressure_sealevel;temperature;humidity
7930;BME280;4010;42.698;23.124;2022-08-05T00:01:21;118349.16;;;-140.64;100.00
7930;BME280;4010;42.698;23.124;2022-08-05T00:03:48;118349.16;;;-140.64;100.00
7930;BME280;4010;42.698;23.124;2022-08-05T00:06:16;118349.16;;;-140.64;100.00
7930;BME280;4010;42.698;23.124;2022-08-05T00:08:43;118349.16;;;-140.64;100.00
7930;BME280;4010;42.698;23.124;2022-08-05T00:11:11;118349.16;;;-140.64;100.00
7930;BME280;4010;42.698;23.124;2022-08-05T00:13:41;118349.16;;;-140.64;100.00
7930;BME280;4010;42.698;23.124;2022-08-05T00:16:10;118349.16;;;-140.64;100.00
7930;BME280;4010;42.698;23.124;2022-08-05T00:18:38;118349.16;;;-140.64;100.00
7930;BME280;4010;42.698;23.124;2022-08-05T00:21:05;118349.16;;;-140.64;100.00
7930;BME280;4010;42.698;23.124;2022-08-05T00:23:32;118349.16;;;-140.64;100.00
7930;BME280;4010;42.698;23.124;2022-08-05T00:25:59;118349.16;;;-140.64;100.00
7930;BME280;4010;42.698;23.124;2022-08-05T00:28:25;118349.16;;;-140.64;100.00
7930;BME280;4010;42.698;23.124;2022-08-05T00:30:54;118349.16;;;-140.64;100.00
7930;BME280;4010;42.698;23.124;2022-08-05T00:33:20;118349.16;;;-140.64;100.00
7930;BME280;4010;42.698;23.124;2022-08-05T00:35:47;118349.16;;;-140.64;100.00
7930;BME280;4010;42.698;23.124;2022-08-05T00:38:14;118349.16;;;-140.64;100.00
7930;BME280;4010;42.698;23.124;2022-08-05T00:40:45;118349.16;;;-140.64;100.00
7930;BME280;4010;42.698;23.124;2022-08-05T00:43:12;118349.16;;;-140.64;100.00
7930;BME280;4010;42.698;23.124;2022-08-05T00:45:39;118349.16;;;-140.64;100.00
7930;BME280;4010;42.698;23.124;2022-08-05T00:48:07;118349.16;;;-140.64;100.00
7930;BME280;4010;42.698;23.124;2022-08-05T00:50:34;118349.16;;;-140.64;100.00
7930;BME280;4010;42.698;23.124;2022-08-05T00:53:01;118349.16;;;-140.64;100.00
7930;BME280;4010;42.698;23.124;2022-08-05T00:55:28;118349.16;;;-140.64;100.00
7930;BME280;4010;42.698;23.124;2022-08-05T00:57:54;118349.16;;;-140.64;100.00
7930;BME280;4010;42.698;23.124;2022-08-05T01:00:21;118349.16;;;-140.64;100.00
7930;BME280;4010;42.698;23.124;2022-08-05T01:02:48;118349.16;;;-140.64;100.00
7930;BME280;4010;42.698;23.124;2022-08-05T01:05:16;118349.16;;;-140.64;100.00
7930;BME280;4010;42.698;23.124;2022-08-05T01:07:43;118349.16;;;-140.64;100.00
7930;BME280;4010;42.698;23.124;2022-08-05T01:10:12;118349.16;;;-140.64;100.00
7930;BME280;4010;42.698;23.124;2022-08-05T01:12:47;118349.16;;;-140.64;100.00
7930;BME280;4010;42.698;23.124;2022-08-05T01:15:18;118349.16;;;-140.64;100.00
7930;BME280;4010;42.698;23.124;2022-08-05T01:17:50;118349.16;;;-140.64;100.00
7930;BME280;4010;42.698;23.124;2022-08-05T01:20:28;118349.16;;;-140.64;100.00
7930;BME280;4010;42.698;23.124;2022-08-05T01:23:03;118349.16;;;-140.64;100.00
7930;BME280;4010;42.698;23.124;2022-08-05T01:25:48;118349.16;;;-140.64;100.00
7930;BME280;4010;42.698;23.124;2022-08-05T01:28:26;118349.16;;;-140.64;100.00
7930;BME280;4010;42.698;23.124;2022-08-05T01:31:00;118349.16;;;-140.64;100.00
7930;BME280;4010;42.698;23.124;2022-08-05T01:33:33;118349.16;;;-140.64;100.00
7930;BME280;4010;42.698;23.124;2022-08-05T01:36:07;118349.16;;;-140.64;100.00
7930;BME280;4010;42.698;23.124;2022-08-05T01:38:36;118349.16;;;-140.64;100.00
7930;BME280;4010;42.698;23.124;2022-08-05T01:41:04;118349.16;;;-140.64;100.00
7930;BME280;4010;42.698;23.124;2022-08-05T01:43:34;118349.16;;;-140.64;100.00
7930;BME280;4010;42.698;23.124;2022-08-05T01:46:02;118349.16;;;-140.64;100.00
7930;BME280;4010;42.698;23.124;2022-08-05T01:48:30;118349.16;;;-140.64;100.00
7930;BME280;4010;42.698;23.124;2022-08-05T01:51:02;118349.16;;;-140.64;100.00
7930;BME280;4010;42.698;23.124;2022-08-05T01:53:30;118349.16;;;-140.64;100.00
7930;BME280;4010;42.698;23.124;2022-08-05T01:56:02;118349.16;;;-140.64;100.00
7930;BME280;4010;42.698;23.124;2022-08-05T01:58:29;118349.16;;;-140.64;100.00
7930;BME280;4010;42.698;23.124;2022-08-05T02:00:59;118349.16;;;-140.64;100.00
7930;BME280;4010;42.698;23.124;2022-08-05T02:03:30;118349.16;;;-140.64;100.00
7930;BME280;4010;42.698;23.124;2022-08-05T02:05:59;118349.16;;;-140.64;100.00
7930;BME280;4010;42.698;23.124;2022-08-05T02:08:26;118349.16;;;-140.64;100.00
7930;BME280;4010;42.698;23.124;2022-08-05T02:10:58;118349.16;;;-140.64;100.00
7930;BME280;4010;42.698;23.124;2022-08-05T02:13:28;118349.16;;;-140.64;100.00
7930;BME280;4010;42.698;23.124;2022-08-05T02:16:02;118349.16;;;-140.64;100.00
7930;BME280;4010;42.698;23.124;2022-08-05T02:18:32;118349.16;;;-140.64;100.00
7930;BME280;4010;42.698;23.124;2022-08-05T02:21:05;118349.16;;;-140.64;100.00
7930;BME280;4010;42.698;23.124;2022-08-05T02:23:36;118349.16;;;-140.64;100.00
7930;BME280;4010;42.698;23.124;2022-08-05T02:26:05;118349.16;;;-140.64;100.00
7930;BME280;4010;42.698;23.124;2022-08-05T02:28:37;118349.16;;;-140.64;100.00
7930;BME280;4010;42.698;23.124;2022-08-05T02:31:08;118349.16;;;-140.64;100.00
7930;BME280;4010;42.698;23.124;2022-08-05T02:33:39;118349.16;;;-140.64;100.00
7930;BME280;4010;42.698;23.124;2022-08-05T02:36:10;118349.16;;;-140.64;100.00
7930;BME280;4010;42.698;23.124;2022-08-05T02:38:38;118349.16;;;-140.64;100.00
7930;BME280;4010;42.698;23.124;2022-08-05T02:41:08;118349.16;;;-140.64;100.00
7930;BME280;4010;42.698;23.124;2022-08-05T02:43:36;118349.16;;;-140.64;100.00
7930;BME280;4010;42.698;23.124;2022-08-05T02:46:03;118349.16;;;-140.64;100.00
7930;BME280;4010;42.698;23.124;2022-08-05T02:48:32;118349.16;;;-140.64;100.00
7930;BME280;4010;42.698;23.124;2022-08-05T02:51:01;118349.16;;;-140.64;100.00
7930;BME280;4010;42.698;23.124;2022-08-05T02:53:29;118349.16;;;-140.64;100.00
7930;BME280;4010;42.698;23.124;2022-08-05T02:55:57;118349.16;;;-140.64;100.00
7930;BME280;4010;42.698;23.124;2022-08-05T02:58:24;118349.16;;;-140.64;100.00
7930;BME280;4010;42.698;23.124;2022-08-05T03:00:54;118349.16;;;-140.64;100.00
7930;BME280;4010;42.698;23.124;2022-08-05T03:03:22;118349.16;;;-140.64;100.00
7930;BME280;4010;42.698;23.124;2022-08-05T03:05:50;118349.16;;;-140.64;100.00
7930;BME280;4010;42.698;23.124;2022-08-05T03:08:17;118349.16;;;-140.64;100.00
7930;BME280;4010;42.698;23.124;2022-08-05T03:10:44;118349.16;;;-140.64;100.00
7930;BME280;4010;42.698;23.124;2022-08-05T03:13:11;118349.16;;;-140.64;100.00
7930;BME280;4010;42.698;23.124;2022-08-05T03:15:41;118349.16;;;-140.64;100.00
7930;BME280;4010;42.698;23.124;2022-08-05T03:18:08;118349.16;;;-140.64;100.00
7930;BME280;4010;42.698;23.124;2022-08-05T03:20:35;118349.16;;;-140.64;100.00
7930;BME280;4010;42.698;23.124;2022-08-05T03:23:04;118349.16;;;-140.64;100.00
7930;BME280;4010;42.698;23.124;2022-08-05T03:25:32;118046.63;;;-140.64;100.00
7930;BME280;4010;42.698;23.124;2022-08-05T03:28:00;115403.31;;;-140.64;100.00
7930;BME280;4010;42.698;23.124;2022-08-05T03:30:28;106517.09;;;-140.64;100.00
7930;BME280;4010;42.698;23.124;2022-08-05T03:32:57;99697.84;;;-140.64;100.00
7930;BME280;4010;42.698;23.124;2022-08-05T03:35:25;101008.19;;;-140.64;100.00
7930;BME280;4010;42.698;23.124;2022-08-05T03:37:52;102581.28;;;-140.64;100.00
7930;BME280;4010;42.698;23.124;2022-08-05T03:40:21;106254.56;;;-140.64;100.00
7930;BME280;4010;42.698;23.124;2022-08-05T03:42:47;111245.94;;;-140.64;100.00
7930;BME280;4010;42.698;23.124;2022-08-05T03:45:14;116145.72;;;-140.64;100.00
7930;BME280;4010;42.698;23.124;2022-08-05T03:47:41;118349.16;;;-140.64;100.00
7930;BME280;4010;42.698;23.124;2022-08-05T03:50:08;118349.16;;;-140.64;100.00
7930;BME280;4010;42.698;23.124;2022-08-05T03:52:39;118349.16;;;-140.64;100.00
7930;BME280;4010;42.698;23.124;2022-08-05T03:55:10;118349.16;;;-140.64;100.00
7930;BME280;4010;42.698;23.124;2022-08-05T03:57:44;118349.16;;;-140.64;100.00
7930;BME280;4010;42.698;23.124;2022-08-05T04:00:13;118349.16;;;-140.64;100.00
7930;BME280;4010;42.698;23.124;2022-08-05T04:02:42;118349.16;;;-140.64;100.00
7930;BME280;4010;42.698;23.124;2022-08-05T04:05:11;118349.16;;;-140.64;100.00
7930;BME280;4010;42.698;23.124;2022-08-05T04:07:39;118349.16;;;-140.64;100.00
7930;BME280;4010;42.698;23.124;2022-08-05T04:10:07;118349.16;;;-140.64;100.00
7930;BME280;4010;42.698;23.124;2022-08-05T04:12:35;118349.16;;;-140.64;100.00
7930;BME280;4010;42.698;23.124;2022-08-05T04:15:04;118349.16;;;-140.64;94.02
7930;BME280;4010;42.698;23.124;2022-08-05T04:17:32;118349.16;;;-140.64;86.40
7930;BME280;4010;42.698;23.124;2022-08-05T04:19:59;118349.16;;;-140.64;79.01
7930;BME280;4010;42.698;23.124;2022-08-05T04:22:26;118349.16;;;-140.64;73.82
7930;BME280;4010;42.698;23.124;2022-08-05T04:24:53;118349.16;;;-140.64;69.80
7930;BME280;4010;42.698;23.124;2022-08-05T04:27:22;118349.16;;;-140.64;67.34
7930;BME280;4010;42.698;23.124;2022-08-05T04:29:49;118349.16;;;-140.64;65.25
7930;BME280;4010;42.698;23.124;2022-08-05T04:32:17;118349.16;;;-140.64;64.29
7930;BME280;4010;42.698;23.124;2022-08-05T04:34:44;118349.16;;;-140.64;62.80
7930;BME280;4010;42.698;23.124;2022-08-05T04:37:11;118349.16;;;-140.64;61.78
7930;BME280;4010;42.698;23.124;2022-08-05T04:39:37;118349.16;;;-140.64;61.05
7930;BME280;4010;42.698;23.124;2022-08-05T04:42:05;118349.16;;;-140.64;60.14
7930;BME280;4010;42.698;23.124;2022-08-05T04:44:31;118349.16;;;-140.64;59.18
7930;BME280;4010;42.698;23.124;2022-08-05T04:46:58;118349.16;;;-140.64;56.02
7930;BME280;4010;42.698;23.124;2022-08-05T04:49:26;118349.16;;;-140.64;55.97
7930;BME280;4010;42.698;23.124;2022-08-05T04:51:53;118349.16;;;-140.64;52.74
7930;BME280;4010;42.698;23.124;2022-08-05T04:54:20;118349.16;;;-140.64;53.73
7930;BME280;4010;42.698;23.124;2022-08-05T04:56:47;118349.16;;;-140.64;52.07
7930;BME280;4010;42.698;23.124;2022-08-05T04:59:13;118349.16;;;-140.64;53.32
7930;BME280;4010;42.698;23.124;2022-08-05T05:01:40;118349.16;;;-140.64;57.84
7930;BME280;4010;42.698;23.124;2022-08-05T05:04:07;118349.16;;;-140.64;58.30
7930;BME280;4010;42.698;23.124;2022-08-05T05:06:35;118349.16;;;-140.64;60.35
7930;BME280;4010;42.698;23.124;2022-08-05T05:09:02;118349.16;;;-140.64;51.87
7930;BME280;4010;42.698;23.124;2022-08-05T05:11:29;118349.16;;;-140.64;47.73
7930;BME280;4010;42.698;23.124;2022-08-05T05:13:55;118349.16;;;-140.64;47.02
7930;BME280;4010;42.698;23.124;2022-08-05T05:16:22;118349.16;;;-140.64;51.07
7930;BME280;4010;42.698;23.124;2022-08-05T05:18:49;118349.16;;;-140.64;48.17
7930;BME280;4010;42.698;23.124;2022-08-05T05:21:16;118349.16;;;-140.64;44.77
7930;BME280;4010;42.698;23.124;2022-08-05T05:23:44;118349.16;;;-140.64;45.55
7930;BME280;4010;42.698;23.124;2022-08-05T05:26:11;118349.16;;;-140.64;46.83
7930;BME280;4010;42.698;23.124;2022-08-05T05:28:37;118349.16;;;-140.64;48.73
7930;BME280;4010;42.698;23.124;2022-08-05T05:31:04;118349.16;;;-140.64;47.71
7930;BME280;4010;42.698;23.124;2022-08-05T05:33:31;118349.16;;;-140.64;47.98
7930;BME280;4010;42.698;23.124;2022-08-05T05:35:57;118349.16;;;-140.64;48.07
7930;BME280;4010;42.698;23.124;2022-08-05T05:38:24;118349.16;;;-140.64;46.35
7930;BME280;4010;42.698;23.124;2022-08-05T05:40:52;118349.16;;;-140.64;47.22
7930;BME280;4010;42.698;23.124;2022-08-05T05:43:20;118349.16;;;-140.64;45.33
7930;BME280;4010;42.698;23.124;2022-08-05T05:45:48;118349.16;;;-140.64;43.47
7930;BME280;4010;42.698;23.124;2022-08-05T05:48:14;118349.16;;;-140.64;44.19
7930;BME280;4010;42.698;23.124;2022-08-05T05:50:41;118349.16;;;-140.64;42.65
7930;BME280;4010;42.698;23.124;2022-08-05T05:53:08;118349.16;;;-140.64;42.52
7930;BME280;4010;42.698;23.124;2022-08-05T05:55:36;118349.16;;;-140.64;42.76
7930;BME280;4010;42.698;23.124;2022-08-05T05:58:04;118349.16;;;-140.64;43.10
7930;BME280;4010;42.698;23.124;2022-08-05T06:00:30;118349.16;;;-140.64;43.83
7930;BME280;4010;42.698;23.124;2022-08-05T06:02:57;118349.16;;;-140.64;43.30
7930;BME280;4010;42.698;23.124;2022-08-05T06:05:25;118349.16;;;-140.64;42.84
7930;BME280;4010;42.698;23.124;2022-08-05T06:07:52;118349.16;;;-140.64;44.24
7930;BME280;4010;42.698;23.124;2022-08-05T06:10:19;118349.16;;;-140.64;42.79
7930;BME280;4010;42.698;23.124;2022-08-05T06:12:46;118349.16;;;-140.64;43.46
7930;BME280;4010;42.698;23.124;2022-08-05T06:15:14;118349.16;;;-140.64;41.15
7930;BME280;4010;42.698;23.124;2022-08-05T06:17:40;118349.16;;;-140.64;42.10
7930;BME280;4010;42.698;23.124;2022-08-05T06:20:08;118349.16;;;-140.64;43.50
7930;BME280;4010;42.698;23.124;2022-08-05T06:22:34;118349.16;;;-140.64;44.76
7930;BME280;4010;42.698;23.124;2022-08-05T06:25:02;118349.16;;;-140.64;42.34
7930;BME280;4010;42.698;23.124;2022-08-05T06:27:30;118349.16;;;-140.64;42.31
7930;BME280;4010;42.698;23.124;2022-08-05T06:29:56;118349.16;;;-140.64;41.52
7930;BME280;4010;42.698;23.124;2022-08-05T06:32:24;118349.16;;;-140.64;41.06
7930;BME280;4010;42.698;23.124;2022-08-05T06:34:51;118349.16;;;-140.64;43.06
7930;BME280;4010;42.698;23.124;2022-08-05T06:37:18;118349.16;;;-140.64;43.48
7930;BME280;4010;42.698;23.124;2022-08-05T06:39:44;118349.16;;;-140.64;41.06
7930;BME280;4010;42.698;23.124;2022-08-05T06:42:11;118349.16;;;-140.64;42.53
7930;BME280;4010;42.698;23.124;2022-08-05T06:44:40;118349.16;;;-140.64;45.25
7930;BME280;4010;42.698;23.124;2022-08-05T06:47:07;118349.16;;;-140.64;41.45
7930;BME280;4010;42.698;23.124;2022-08-05T06:49:36;118349.16;;;-140.64;42.65
7930;BME280;4010;42.698;23.124;2022-08-05T06:52:03;118349.16;;;-140.64;47.01
7930;BME280;4010;42.698;23.124;2022-08-05T06:54:30;118349.16;;;-140.64;46.98
7930;BME280;4010;42.698;23.124;2022-08-05T06:56:56;118349.16;;;-140.64;44.57
7930;BME280;4010;42.698;23.124;2022-08-05T06:59:23;118349.16;;;-140.64;48.94
7930;BME280;4010;42.698;23.124;2022-08-05T07:01:50;118349.16;;;-140.64;48.96
7930;BME280;4010;42.698;23.124;2022-08-05T07:04:17;118349.16;;;-140.64;55.07
7930;BME280;4010;42.698;23.124;2022-08-05T07:06:45;118349.16;;;-140.64;60.11
7930;BME280;4010;42.698;23.124;2022-08-05T07:09:11;118349.16;;;-140.64;58.54
7930;BME280;4010;42.698;23.124;2022-08-05T07:11:38;118349.16;;;-140.64;61.45
7930;BME280;4010;42.698;23.124;2022-08-05T07:14:05;118349.16;;;-140.64;62.57
7930;BME280;4010;42.698;23.124;2022-08-05T07:16:49;118349.16;;;-140.64;66.36
7930;BME280;4010;42.698;23.124;2022-08-05T07:19:16;118349.16;;;-140.64;64.52
7930;BME280;4010;42.698;23.124;2022-08-05T07:21:46;118349.16;;;-140.64;67.75
7930;BME280;4010;42.698;23.124;2022-08-05T07:24:13;118349.16;;;-140.64;64.79
7930;BME280;4010;42.698;23.124;2022-08-05T07:26:41;118349.16;;;-140.64;72.19
7930;BME280;4010;42.698;23.124;2022-08-05T07:29:08;118349.16;;;-140.64;67.00
7930;BME280;4010;42.698;23.124;2022-08-05T07:31:35;118349.16;;;-140.64;65.27
7930;BME280;4010;42.698;23.124;2022-08-05T07:34:02;118349.16;;;-140.64;62.78
7930;BME280;4010;42.698;23.124;2022-08-05T07:36:29;118349.16;;;-140.64;62.30
7930;BME280;4010;42.698;23.124;2022-08-05T07:38:59;118349.16;;;-140.64;61.63
7930;BME280;4010;42.698;23.124;2022-08-05T07:41:26;118349.16;;;-140.64;61.46
7930;BME280;4010;42.698;23.124;2022-08-05T07:43:54;118349.16;;;-140.64;63.97
7930;BME280;4010;42.698;23.124;2022-08-05T07:46:21;118349.16;;;-140.64;59.95
7930;BME280;4010;42.698;23.124;2022-08-05T07:48:48;118349.16;;;-140.64;59.74
7930;BME280;4010;42.698;23.124;2022-08-05T07:51:15;118349.16;;;-140.64;67.27
7930;BME280;4010;42.698;23.124;2022-08-05T07:53:42;118349.16;;;-140.64;62.91
7930;BME280;4010;42.698;23.124;2022-08-05T07:56:10;118349.16;;;-140.64;64.76
7930;BME280;4010;42.698;23.124;2022-08-05T07:58:37;118349.16;;;-140.64;58.84
7930;BME280;4010;42.698;23.124;2022-08-05T08:01:04;118349.16;;;-140.64;60.46
7930;BME280;4010;42.698;23.124;2022-08-05T08:03:31;118349.16;;;-140.64;60.70
7930;BME280;4010;42.698;23.124;2022-08-05T08:05:58;118349.16;;;-140.64;57.53
7930;BME280;4010;42.698;23.124;2022-08-05T08:08:25;118349.16;;;-140.64;59.94
7930;BME280;4010;42.698;23.124;2022-08-05T08:10:51;118349.16;;;-140.64;55.89
7930;BME280;4010;42.698;23.124;2022-08-05T08:13:21;118349.16;;;-140.64;57.61
7930;BME280;4010;42.698;23.124;2022-08-05T08:15:47;118349.16;;;-140.64;56.68
7930;BME280;4010;42.698;23.124;2022-08-05T08:18:14;118349.16;;;-140.64;52.72
7930;BME280;4010;42.698;23.124;2022-08-05T08:20:42;118349.16;;;-140.64;53.87
7930;BME280;4010;42.698;23.124;2022-08-05T08:23:08;118349.16;;;-140.64;53.50
7930;BME280;4010;42.698;23.124;2022-08-05T08:25:35;118349.16;;;-140.64;55.44
7930;BME280;4010;42.698;23.124;2022-08-05T08:28:02;118349.16;;;-140.64;52.35
7930;BME280;4010;42.698;23.124;2022-08-05T08:30:30;118349.16;;;-140.64;51.21
7930;BME280;4010;42.698;23.124;2022-08-05T08:32:57;118349.16;;;-140.64;49.39
7930;BME280;4010;42.698;23.124;2022-08-05T08:35:23;118349.16;;;-140.64;49.46
7930;BME280;4010;42.698;23.124;2022-08-05T08:37:50;118349.16;;;-140.64;51.26
7930;BME280;4010;42.698;23.124;2022-08-05T08:40:17;118349.16;;;-140.64;51.22
7930;BME280;4010;42.698;23.124;2022-08-05T08:42:47;118349.16;;;-140.64;47.21
7930;BME280;4010;42.698;23.124;2022-08-05T08:45:16;118349.16;;;-140.64;51.21
7930;BME280;4010;42.698;23.124;2022-08-05T08:47:48;118349.16;;;-140.64;49.76
7930;BME280;4010;42.698;23.124;2022-08-05T08:50:16;118349.16;;;-140.64;47.42
7930;BME280;4010;42.698;23.124;2022-08-05T08:52:49;118349.16;;;-140.64;47.67
7930;BME280;4010;42.698;23.124;2022-08-05T08:55:16;118349.16;;;-140.64;48.28
7930;BME280;4010;42.698;23.124;2022-08-05T08:57:44;118349.16;;;-140.64;48.29
7930;BME280;4010;42.698;23.124;2022-08-05T09:00:12;118349.16;;;-140.64;48.25
7930;BME280;4010;42.698;23.124;2022-08-05T09:02:39;118349.16;;;-140.64;49.13
7930;BME280;4010;42.698;23.124;2022-08-05T09:05:09;118349.16;;;-140.64;49.94
7930;BME280;4010;42.698;23.124;2022-08-05T09:07:36;118349.16;;;-140.64;45.68
7930;BME280;4010;42.698;23.124;2022-08-05T09:10:03;118349.16;;;-140.64;48.44
7930;BME280;4010;42.698;23.124;2022-08-05T09:12:30;118349.16;;;-140.64;48.81
7930;BME280;4010;42.698;23.124;2022-08-05T09:14:57;118349.16;;;-140.64;44.22
7930;BME280;4010;42.698;23.124;2022-08-05T09:17:26;118349.16;;;-140.64;48.13
7930;BME280;4010;42.698;23.124;2022-08-05T09:19:53;118349.16;;;-140.64;47.17
7930;BME280;4010;42.698;23.124;2022-08-05T09:22:21;118349.16;;;-140.64;49.31
7930;BME280;4010;42.698;23.124;2022-08-05T09:24:56;118349.16;;;-140.64;46.01
7930;BME280;4010;42.698;23.124;2022-08-05T09:27:32;118349.16;;;-140.64;43.25
7930;BME280;4010;42.698;23.124;2022-08-05T09:29:59;118349.16;;;-140.64;47.58
7930;BME280;4010;42.698;23.124;2022-08-05T09:32:36;118349.16;;;-140.64;44.73
7930;BME280;4010;42.698;23.124;2022-08-05T09:35:08;118349.16;;;-140.64;44.84
7930;BME280;4010;42.698;23.124;2022-08-05T09:37:48;118349.16;;;-140.64;45.54
7930;BME280;4010;42.698;23.124;2022-08-05T09:40:29;118349.16;;;-140.64;44.89
7930;BME280;4010;42.698;23.124;2022-08-05T09:42:56;118349.16;;;-140.64;42.20
7930;BME280;4010;42.698;23.124;2022-08-05T09:45:33;118349.16;;;-140.64;46.90
7930;BME280;4010;42.698;23.124;2022-08-05T09:48:17;118349.16;;;-140.64;42.32
7930;BME280;4010;42.698;23.124;2022-08-05T09:50:48;118349.16;;;-140.64;46.57
7930;BME280;4010;42.698;23.124;2022-08-05T09:53:17;118349.16;;;-140.64;42.42
7930;BME280;4010;42.698;23.124;2022-08-05T09:55:44;118349.16;;;-140.64;45.66
7930;BME280;4010;42.698;23.124;2022-08-05T09:58:12;118349.16;;;-140.64;44.53
7930;BME280;4010;42.698;23.124;2022-08-05T10:00:51;118349.16;;;-140.64;41.67
7930;BME280;4010;42.698;23.124;2022-08-05T10:03:17;118349.16;;;-140.64;42.66
7930;BME280;4010;42.698;23.124;2022-08-05T10:05:44;118349.16;;;-140.64;41.31
7930;BME280;4010;42.698;23.124;2022-08-05T10:08:11;118349.16;;;-140.64;42.92
7930;BME280;4010;42.698;23.124;2022-08-05T10:10:48;118349.16;;;-140.64;45.63
7930;BME280;4010;42.698;23.124;2022-08-05T10:13:26;118349.16;;;-140.64;47.66
7930;BME280;4010;42.698;23.124;2022-08-05T10:15:53;118349.16;;;-140.64;42.20
7930;BME280;4010;42.698;23.124;2022-08-05T10:18:20;118349.16;;;-140.64;41.74
7930;BME280;4010;42.698;23.124;2022-08-05T10:20:49;118349.16;;;-140.64;43.54
7930;BME280;4010;42.698;23.124;2022-08-05T10:23:19;118349.16;;;-140.64;41.22
7930;BME280;4010;42.698;23.124;2022-08-05T10:25:48;118349.16;;;-140.64;45.62
7930;BME280;4010;42.698;23.124;2022-08-05T10:28:15;118349.16;;;-140.64;44.74
7930;BME280;4010;42.698;23.124;2022-08-05T10:30:42;118349.16;;;-140.64;43.80
7930;BME280;4010;42.698;23.124;2022-08-05T10:33:09;118349.16;;;-140.64;42.79
7930;BME280;4010;42.698;23.124;2022-08-05T10:35:36;118349.16;;;-140.64;42.40
7930;BME280;4010;42.698;23.124;2022-08-05T10:38:04;118349.16;;;-140.64;41.66
7930;BME280;4010;42.698;23.124;2022-08-05T10:40:34;118349.16;;;-140.64;39.73
7930;BME280;4010;42.698;23.124;2022-08-05T10:43:08;118349.16;;;-140.64;44.91
7930;BME280;4010;42.698;23.124;2022-08-05T10:45:37;118349.16;;;-140.64;41.77
7930;BME280;4010;42.698;23.124;2022-08-05T10:48:31;118349.16;;;-140.64;41.73
7930;BME280;4010;42.698;23.124;2022-08-05T10:51:00;118349.16;;;-140.64;42.67
7930;BME280;4010;42.698;23.124;2022-08-05T10:53:35;118349.16;;;-140.64;41.14
7930;BME280;4010;42.698;23.124;2022-08-05T10:56:03;118349.16;;;-140.64;40.76
7930;BME280;4010;42.698;23.124;2022-08-05T10:58:33;118349.16;;;-140.64;39.44
7930;BME280;4010;42.698;23.124;2022-08-05T11:01:05;118349.16;;;-140.64;41.59
7930;BME280;4010;42.698;23.124;2022-08-05T11:03:32;118349.16;;;-140.64;41.82
7930;BME280;4010;42.698;23.124;2022-08-05T11:06:05;118349.16;;;-140.64;41.53
7930;BME280;4010;42.698;23.124;2022-08-05T11:08:33;118349.16;;;-140.64;41.27
7930;BME280;4010;42.698;23.124;2022-08-05T11:11:33;118349.16;;;-140.64;38.45
7930;BME280;4010;42.698;23.124;2022-08-05T11:14:03;118349.16;;;-140.64;40.64
7930;BME280;4010;42.698;23.124;2022-08-05T11:16:30;118349.16;;;-140.64;37.93
7930;BME280;4010;42.698;23.124;2022-08-05T11:19:25;118349.16;;;-140.64;39.04
7930;BME280;4010;42.698;23.124;2022-08-05T11:21:53;118349.16;;;-140.64;40.83
7930;BME280;4010;42.698;23.124;2022-08-05T11:24:21;118349.16;;;-140.64;41.36
7930;BME280;4010;42.698;23.124;2022-08-05T11:26:49;118349.16;;;-140.64;38.79
7930;BME280;4010;42.698;23.124;2022-08-05T11:29:38;118349.16;;;-140.64;39.37
7930;BME280;4010;42.698;23.124;2022-08-05T11:32:25;118349.16;;;-140.64;38.75
7930;BME280;4010;42.698;23.124;2022-08-05T11:34:52;118349.16;;;-140.64;36.68
7930;BME280;4010;42.698;23.124;2022-08-05T11:37:42;118349.16;;;-140.64;36.03
7930;BME280;4010;42.698;23.124;2022-08-05T11:40:09;118349.16;;;-140.64;37.64
7930;BME280;4010;42.698;23.124;2022-08-05T11:42:38;118349.16;;;-140.64;36.73
7930;BME280;4010;42.698;23.124;2022-08-05T11:45:08;118349.16;;;-140.64;36.59
7930;BME280;4010;42.698;23.124;2022-08-05T11:47:35;118349.16;;;-140.64;38.15
7930;BME280;4010;42.698;23.124;2022-08-05T11:50:03;118349.16;;;-140.64;36.88
7930;BME280;4010;42.698;23.124;2022-08-05T11:52:30;118349.16;;;-140.64;39.26
7930;BME280;4010;42.698;23.124;2022-08-05T11:54:57;118349.16;;;-140.64;36.63
7930;BME280;4010;42.698;23.124;2022-08-05T11:57:28;118349.16;;;-140.64;38.42
7930;BME280;4010;42.698;23.124;2022-08-05T11:59:55;118349.16;;;-140.64;37.60
7930;BME280;4010;42.698;23.124;2022-08-05T12:02:28;118349.16;;;-140.64;37.45
7930;BME280;4010;42.698;23.124;2022-08-05T12:04:57;118349.16;;;-140.64;36.73
7930;BME280;4010;42.698;23.124;2022-08-05T12:07:24;118349.16;;;-140.64;36.70
7930;BME280;4010;42.698;23.124;2022-08-05T12:09:53;118349.16;;;-140.64;36.63
7930;BME280;4010;42.698;23.124;2022-08-05T12:12:21;118349.16;;;-140.64;37.42
7930;BME280;4010;42.698;23.124;2022-08-05T12:14:48;118349.16;;;-140.64;35.84
7930;BME280;4010;42.698;23.124;2022-08-05T12:17:15;118349.16;;;-140.64;36.45
7930;BME280;4010;42.698;23.124;2022-08-05T12:19:46;118349.16;;;-140.64;38.02
7930;BME280;4010;42.698;23.124;2022-08-05T12:22:13;118349.16;;;-140.64;40.42
7930;BME280;4010;42.698;23.124;2022-08-05T12:24:41;118349.16;;;-140.64;38.56
7930;BME280;4010;42.698;23.124;2022-08-05T12:27:08;118349.16;;;-140.64;37.51
7930;BME280;4010;42.698;23.124;2022-08-05T12:29:35;118349.16;;;-140.64;38.08
7930;BME280;4010;42.698;23.124;2022-08-05T12:32:04;118349.16;;;-140.64;38.97
7930;BME280;4010;42.698;23.124;2022-08-05T12:34:32;118349.16;;;-140.64;38.12
7930;BME280;4010;42.698;23.124;2022-08-05T12:37:05;118349.16;;;-140.64;41.55
7930;BME280;4010;42.698;23.124;2022-08-05T12:39:36;118349.16;;;-140.64;40.39
7930;BME280;4010;42.698;23.124;2022-08-05T12:42:08;118349.16;;;-140.64;41.24
7930;BME280;4010;42.698;23.124;2022-08-05T12:44:35;118349.16;;;-140.64;42.03
7930;BME280;4010;42.698;23.124;2022-08-05T12:47:03;118349.16;;;-140.64;43.30